Time;durP1;ratioP1;P1;durP2;ratioP2;P2;SDS_P1;SDS_P2;PMS_P1;PMS_P2;Temp;Humidity;BMP_temperature;BMP_pressure;BME280_temperature;BME280_humidity;BME280_pressure;Samples;Min_cycle;Max_cycle;Signal;HPM_P1;HPM_P2
2024/01/02 06:02:07;;;;;;;1.50;0.47;;;7.40;82.90;;;;;;4084057;23;20124;-79
2024/01/02 06:04:09;;;;;;;1.95;0.70;;;7.40;82.10;;;;;;4070757;29;20115;-80
2024/01/02 06:06:11;;;;;;;2.53;0.68;;;7.40;82.00;;;;;;4070819;29;20056;-79
2024/01/02 06:08:13;;;;;;;2.80;0.60;;;7.40;81.30;;;;;;4070786;29;20616;-79
2024/01/02 06:10:15;;;;;;;1.58;0.50;;;7.40;81.60;;;;;;4070574;29;20104;-79
2024/01/02 06:12:17;;;;;;;1.20;0.40;;;7.40;81.00;;;;;;4070607;29;20044;-80
2024/01/02 06:14:18;;;;;;;1.63;0.60;;;7.50;81.00;;;;;;4070776;29;20339;-80
2024/01/02 06:16:20;;;;;;;1.38;0.52;;;7.50;81.00;;;;;;4070749;29;20056;-79
2024/01/02 06:18:23;;;;;;;1.38;0.40;;;7.50;81.40;;;;;;4070742;29;20544;-79
2024/01/02 06:20:25;;;;;;;1.30;0.50;;;7.50;81.20;;;;;;4070475;29;20130;-78
2024/01/02 06:22:26;;;;;;;1.27;0.50;;;7.50;81.00;;;;;;4070630;29;20048;-80
2024/01/02 06:24:28;;;;;;;1.80;0.50;;;7.50;80.20;;;;;;4070485;29;20048;-80
2024/01/02 06:26:30;;;;;;;1.35;0.50;;;7.60;80.50;;;;;;4070586;29;20060;-79
2024/01/02 06:28:32;;;;;;;2.22;0.57;;;7.60;79.60;;;;;;4072114;29;20107;-78
2024/01/02 06:30:33;;;;;;;0.68;0.35;;;7.60;79.60;;;;;;4067379;29;20439;-79
2024/01/02 06:32:34;;;;;;;3.67;0.60;;;7.60;79.70;;;;;;4054618;29;20104;-79
2024/01/02 06:34:37;;;;;;;1.25;0.30;;;7.70;79.30;;;;;;4054973;29;20478;-80
2024/01/02 06:36:39;;;;;;;1.70;0.47;;;7.70;79.60;;;;;;4054551;29;20056;-78
2024/01/02 06:38:41;;;;;;;1.10;0.30;;;7.70;79.60;;;;;;4054567;29;20048;-78
2024/01/02 06:40:43;;;;;;;1.20;0.40;;;7.80;79.60;;;;;;4054464;29;20057;-79
2024/01/02 06:42:45;;;;;;;0.77;0.35;;;7.80;79.80;;;;;;4054645;29;20045;-79
2024/01/02 06:44:46;;;;;;;2.60;0.95;;;7.80;79.80;;;;;;4054554;29;20055;-79
2024/01/02 06:46:48;;;;;;;1.02;0.32;;;7.80;80.10;;;;;;4054484;29;20426;-80
2024/01/02 06:48:50;;;;;;;0.98;0.30;;;7.90;79.80;;;;;;4054470;29;20479;-79
2024/01/02 06:50:53;;;;;;;1.17;0.43;;;7.90;79.80;;;;;;4054406;29;20100;-79
2024/01/02 06:52:55;;;;;;;1.33;0.40;;;7.90;79.70;;;;;;4054411;29;20459;-79
2024/01/02 06:54:56;;;;;;;1.83;0.40;;;7.90;79.90;;;;;;4054306;29;20049;-79
2024/01/02 06:56:58;;;;;;;2.42;0.35;;;7.90;80.00;;;;;;4054392;29;20048;-80
2024/01/02 06:59:00;;;;;;;1.25;0.40;;;8.00;79.70;;;;;;4054318;29;20131;-79
2024/01/02 07:01:02;;;;;;;0.47;0.30;;;8.00;79.80;;;;;;4054047;29;20093;-80
2024/01/02 07:03:04;;;;;;;1.15;0.32;;;8.00;79.80;;;;;;4058666;29;20052;-79
2024/01/02 07:05:06;;;;;;;1.38;0.38;;;8.00;79.90;;;;;;4069820;29;20044;-79
2024/01/02 07:07:10;;;;;;;1.30;0.28;;;8.00;79.70;;;;;;4069915;29;20131;-79
2024/01/02 07:09:11;;;;;;;0.45;0.20;;;8.10;79.60;;;;;;4058217;29;20084;-79
2024/01/02 07:11:13;;;;;;;2.28;0.38;;;8.20;79.50;;;;;;4054020;29;20044;-80
2024/01/02 07:13:15;;;;;;;1.15;0.40;;;8.20;79.40;;;;;;4054042;29;20049;-79
2024/01/02 07:15:17;;;;;;;0.95;0.40;;;8.20;79.40;;;;;;4054147;29;20048;-79
2024/01/02 07:17:21;;;;;;;0.73;0.25;;;8.30;79.30;;;;;;4054303;29;20067;-79
2024/01/02 07:19:21;;;;;;;0.35;0.15;;;8.30;79.10;;;;;;4053999;29;20414;-79
2024/01/02 07:21:23;;;;;;;2.78;0.30;;;8.40;79.40;;;;;;4053973;29;20056;-80
2024/01/02 07:23:27;;;;;;;0.70;0.20;;;8.40;79.20;;;;;;4053960;29;20076;-78
2024/01/02 07:25:28;;;;;;;0.73;0.28;;;8.40;79.20;;;;;;4053998;29;20554;-79
2024/01/02 07:27:30;;;;;;;0.88;0.20;;;8.50;79.20;;;;;;4053991;29;20048;-79
2024/01/02 07:29:32;;;;;;;1.23;0.30;;;8.50;79.00;;;;;;4053942;29;20044;-78
2024/01/02 07:31:35;;;;;;;0.77;0.20;;;8.60;79.30;;;;;;4054118;29;20116;-79
2024/01/02 07:33:37;;;;;;;0.50;0.17;;;8.60;78.80;;;;;;4069373;29;20070;-80
2024/01/02 07:35:39;;;;;;;1.70;0.25;;;8.60;79.30;;;;;;4061740;29;20443;-77
2024/01/02 07:37:41;;;;;;;1.30;0.30;;;8.60;79.00;;;;;;4053829;29;20052;-78
2024/01/02 07:39:44;;;;;;;0.70;0.30;;;8.70;79.30;;;;;;4053809;29;20135;-80
2024/01/02 07:41:46;;;;;;;2.05;0.40;;;8.70;78.90;;;;;;4053569;29;20098;-79
2024/01/02 07:43:48;;;;;;;1.55;0.30;;;8.80;78.80;;;;;;4053842;29;20056;-80
2024/01/02 07:45:50;;;;;;;0.93;0.20;;;8.80;78.90;;;;;;4053719;29;20059;-78
2024/01/02 07:47:51;;;;;;;1.10;0.30;;;8.90;79.40;;;;;;4053702;29;20052;-81
2024/01/02 07:49:53;;;;;;;0.75;0.20;;;8.90;80.00;;;;;;4053728;29;20493;-79
2024/01/02 07:51:55;;;;;;;0.60;0.25;;;8.90;80.70;;;;;;4053609;29;20116;-79
2024/01/02 07:53:57;;;;;;;1.30;0.28;;;8.90;81.40;;;;;;4053628;29;20056;-79
2024/01/02 07:56:03;;;;;;;0.40;0.13;;;8.90;81.80;;;;;;4053610;29;20052;-79
2024/01/02 07:58:05;;;;;;;0.28;0.10;;;8.80;81.70;;;;;;4056290;29;20095;-78
2024/01/02 08:00:09;;;;;;;0.50;0.20;;;8.90;81.00;;;;;;4069248;29;20401;-79
2024/01/02 08:02:10;;;;;;;0.63;0.20;;;8.90;81.60;;;;;;4068681;29;20059;-79
2024/01/02 08:04:11;;;;;;;0.70;0.20;;;8.90;81.90;;;;;;4068397;29;20541;-79
2024/01/02 08:06:13;;;;;;;0.70;0.20;;;8.90;82.20;;;;;;4068902;29;20048;-79
2024/01/02 08:08:15;;;;;;;0.50;0.10;;;8.90;82.40;;;;;;4068992;29;20134;-77
2024/01/02 08:10:17;;;;;;;1.48;0.40;;;8.90;82.40;;;;;;4068893;29;20501;-79
2024/01/02 08:12:20;;;;;;;1.02;0.20;;;8.90;82.00;;;;;;4068841;29;20087;-76
2024/01/02 08:14:22;;;;;;;0.47;0.17;;;8.90;81.80;;;;;;4068938;29;20052;-78
2024/01/02 08:16:24;;;;;;;2.08;0.20;;;8.90;81.90;;;;;;4068675;29;20085;-76
2024/01/02 08:18:27;;;;;;;0.50;0.30;;;8.90;81.80;;;;;;4060933;29;20080;-78
2024/01/02 08:20:30;;;;;;;0.75;0.20;;;9.00;82.10;;;;;;4069000;29;20044;-77
2024/01/02 08:22:31;;;;;;;0.52;0.10;;;9.00;82.10;;;;;;4068864;29;20048;-79
2024/01/02 08:24:33;;;;;;;1.08;0.25;;;9.00;81.90;;;;;;4068801;29;20056;-81
2024/01/02 08:26:36;;;;;;;1.10;0.22;;;9.00;81.60;;;;;;4068675;29;20052;-80
2024/01/02 08:28:38;;;;;;;0.10;0.10;;;9.00;81.90;;;;;;4068759;29;20508;-77
2024/01/02 08:30:40;;;;;;;0.63;0.20;;;9.00;81.90;;;;;;4068667;29;20052;-79
2024/01/02 08:32:41;;;;;;;1.13;0.20;;;9.00;81.70;;;;;;4068749;29;20131;-78
2024/01/02 08:34:43;;;;;;;1.10;0.20;;;9.10;81.70;;;;;;4068831;29;20095;-75
2024/01/02 08:36:45;;;;;;;0.57;0.20;;;9.10;81.90;;;;;;4068936;29;20088;-80
2024/01/02 08:38:46;;;;;;;1.10;0.30;;;9.10;81.80;;;;;;4072346;29;20048;-79
2024/01/02 08:40:47;;;;;;;0.93;0.20;;;9.10;81.50;;;;;;4071334;29;20080;-79
2024/01/02 08:42:49;;;;;;;0.73;0.30;;;9.10;81.40;;;;;;4069012;29;20056;-79
2024/01/02 08:44:51;;;;;;;0.75;0.30;;;9.20;81.20;;;;;;4068785;29;20048;-79
2024/01/02 08:46:53;;;;;;;0.50;0.20;;;9.20;81.00;;;;;;4068697;29;20055;-79
2024/01/02 08:48:55;;;;;;;1.77;0.30;;;9.20;81.20;;;;;;4068629;29;20467;-77
2024/01/02 08:50:57;;;;;;;0.47;0.10;;;9.20;80.90;;;;;;4068777;29;20044;-78
2024/01/02 08:52:59;;;;;;;1.90;0.20;;;9.20;80.60;;;;;;4068351;29;20194;-77
2024/01/02 08:55:01;;;;;;;0.65;0.17;;;9.20;80.80;;;;;;4069003;29;20055;-78
2024/01/02 08:57:02;;;;;;;0.73;0.20;;;9.20;80.80;;;;;;4068537;29;20108;-79
2024/01/02 08:59:03;;;;;;;0.45;0.20;;;9.30;80.90;;;;;;4068700;29;20387;-78
2024/01/02 09:01:11;;;;;;;1.38;0.32;;;9.30;80.90;;;;;;4068082;29;20104;-77
2024/01/02 09:03:13;;;;;;;0.63;0.20;;;9.30;80.60;;;;;;4068358;29;20183;-80
2024/01/02 09:05:15;;;;;;;1.42;0.28;;;9.30;80.00;;;;;;4068584;29;20554;-79
2024/01/02 09:07:17;;;;;;;1.08;0.20;;;9.30;80.00;;;;;;4068518;29;20104;-77
2024/01/02 09:09:19;;;;;;;0.90;0.30;;;9.40;79.90;;;;;;4068619;29;20124;-81
2024/01/02 09:11:21;;;;;;;0.82;0.15;;;9.40;79.80;;;;;;4068669;29;20044;-79
2024/01/02 09:13:23;;;;;;;0.98;0.30;;;9.40;79.80;;;;;;4068408;29;20045;-77
2024/01/02 09:15:24;;;;;;;0.47;0.20;;;9.40;79.80;;;;;;4068211;29;20139;-79
2024/01/02 09:17:28;;;;;;;0.75;0.20;;;9.40;79.80;;;;;;4068250;29;20078;-80
2024/01/02 09:19:30;;;;;;;0.55;0.20;;;9.40;80.00;;;;;;4068702;29;20048;-78
2024/01/02 09:21:31;;;;;;;1.60;0.17;;;9.40;80.00;;;;;;4068306;29;20090;-77
2024/01/02 09:23:34;;;;;;;0.22;0.10;;;9.40;80.10;;;;;;4068536;29;20115;-80
2024/01/02 09:25:40;;;;;;;0.68;0.20;;;9.50;79.80;;;;;;4068621;29;20054;-79
2024/01/02 09:27:44;;;;;;;1.50;0.52;;;9.50;79.80;;;;;;4084360;29;20477;-80
2024/01/02 09:29:46;;;;;;;0.40;0.20;;;9.50;79.60;;;;;;4085010;29;20495;-79
2024/01/02 09:31:48;;;;;;;0.45;0.20;;;9.50;79.60;;;;;;4087362;29;20055;-78
2024/01/02 09:33:52;;;;;;;0.68;0.30;;;9.50;79.30;;;;;;4087614;29;20470;-77
2024/01/02 09:35:54;;;;;;;0.28;0.10;;;9.60;79.40;;;;;;4087540;29;20055;-78
2024/01/02 09:37:56;;;;;;;0.68;0.10;;;9.60;79.20;;;;;;4087166;29;20051;-77
2024/01/02 09:39:58;;;;;;;1.42;0.10;;;9.60;78.80;;;;;;4087582;29;20138;-76
2024/01/02 09:42:20;;;;;;;0.30;0.10;;;9.60;78.40;;;;;;4086955;29;20394;-79
2024/01/02 09:44:44;;;;;;;1.23;0.40;;;9.70;78.40;;;;;;4086303;29;20048;-78
2024/01/02 09:46:56;;;;;;;0.63;0.20;;;9.70;78.40;;;;;;4086802;29;20083;-77
2024/01/02 09:49:18;;;;;;;2.15;0.98;;;9.70;78.20;;;;;;4086879;29;20457;-77
2024/01/02 09:51:32;;;;;;;1.73;0.28;;;9.70;77.90;;;;;;4086465;29;20135;-79
2024/01/02 09:54:12;;;;;;;0.93;0.35;;;9.70;78.00;;;;;;4086638;29;20143;-78
2024/01/02 09:56:20;;;;;;;0.10;0.08;;;9.80;77.60;;;;;;4077587;29;20055;-80
2024/01/02 09:58:43;;;;;;;0.30;0.10;;;9.80;77.50;;;;;;4086464;29;20052;-79
2024/01/02 10:01:08;;;;;;;0.60;0.15;;;9.80;77.20;;;;;;4086300;29;20079;-79
2024/01/02 10:03:42;;;;;;;0.30;0.10;;;9.90;77.10;;;;;;4086469;29;20060;-78
2024/01/02 10:05:59;;;;;;;0.17;0.10;;;9.90;77.00;;;;;;4086518;29;20489;-79
2024/01/02 10:08:20;;;;;;;0.20;0.10;;;9.90;77.50;;;;;;4086364;29;20055;-79
2024/01/02 10:10:33;;;;;;;0.55;0.10;;;9.90;77.60;;;;;;4085937;29;20072;-80
2024/01/02 10:12:53;;;;;;;0.10;0.10;;;9.90;77.90;;;;;;4086463;29;20055;-81
2024/01/02 10:15:21;;;;;;;0.70;0.30;;;9.90;77.80;;;;;;4086282;29;20044;-78
2024/01/02 10:17:37;;;;;;;0.20;0.17;;;9.90;77.90;;;;;;4086360;29;20497;-80
2024/01/02 10:19:50;;;;;;;1.08;0.22;;;9.90;77.90;;;;;;4088429;29;20470;-80
2024/01/02 10:22:09;;;;;;;0.77;0.38;;;9.90;77.90;;;;;;4085870;29;20056;-79
2024/01/02 10:24:41;;;;;;;1.08;0.20;;;10.00;77.60;;;;;;4086344;29;20043;-79
2024/01/02 10:27:04;;;;;;;0.13;0.10;;;10.00;77.50;;;;;;4086158;29;20056;-80
2024/01/02 10:29:18;;;;;;;0.52;0.20;;;10.10;77.30;;;;;;4085926;29;20489;-79
2024/01/02 10:31:28;;;;;;;0.68;0.15;;;10.10;77.00;;;;;;4085977;29;20083;-80
2024/01/02 10:33:38;;;;;;;0.60;0.20;;;10.10;77.20;;;;;;4085938;29;20111;-80
2024/01/02 10:35:45;;;;;;;1.10;0.32;;;10.10;77.20;;;;;;4086033;29;20139;-79
2024/01/02 10:38:04;;;;;;;0.70;0.20;;;10.20;77.00;;;;;;4086071;29;20102;-80
2024/01/02 10:40:12;;;;;;;1.15;0.20;;;10.20;76.80;;;;;;4085517;29;20115;-80
2024/01/02 10:42:27;;;;;;;0.50;0.20;;;10.20;76.60;;;;;;4085692;29;20466;-80
2024/01/02 10:44:42;;;;;;;0.30;0.10;;;10.20;76.30;;;;;;4086076;29;20110;-79
2024/01/02 10:46:49;;;;;;;0.57;0.20;;;10.20;76.10;;;;;;4083342;29;20098;-80
2024/01/02 10:49:00;;;;;;;0.73;0.28;;;10.20;76.40;;;;;;4083986;29;20469;-79
2024/01/02 10:51:05;;;;;;;0.35;0.10;;;10.30;76.30;;;;;;4084050;29;20473;-82
2024/01/02 10:53:28;;;;;;;0.93;0.28;;;10.30;76.40;;;;;;4083819;29;20489;-79
2024/01/02 10:55:42;;;;;;;0.57;0.13;;;10.30;75.90;;;;;;4083778;29;20151;-78
2024/01/02 10:57:53;;;;;;;0.70;0.22;;;10.30;76.10;;;;;;4083484;29;20063;-80
2024/01/02 11:00:07;;;;;;;0.68;0.20;;;10.30;76.20;;;;;;4083641;29;20123;-81
2024/01/02 11:02:26;;;;;;;0.25;0.08;;;10.30;76.40;;;;;;4069386;29;20485;-78
2024/01/02 11:04:37;;;;;;;0.40;0.13;;;10.40;76.50;;;;;;4066298;29;20044;-81
2024/01/02 11:06:45;;;;;;;0.63;0.15;;;10.30;76.20;;;;;;4067740;29;20052;-80
2024/01/02 11:09:03;;;;;;;0.52;0.22;;;10.40;76.20;;;;;;4067713;29;20084;-81
2024/01/02 11:11:09;;;;;;;0.50;0.10;;;10.40;76.40;;;;;;4067492;29;20127;-79
2024/01/02 11:13:14;;;;;;;0.98;0.22;;;10.40;76.20;;;;;;4067803;29;20048;-81
2024/01/02 11:15:18;;;;;;;2.05;0.80;;;10.40;76.20;;;;;;4067448;29;20059;-79
2024/01/02 11:17:21;;;;;;;2.67;1.13;;;10.50;75.90;;;;;;4067456;29;20048;-80
2024/01/02 11:19:31;;;;;;;1.25;0.30;;;10.50;75.90;;;;;;4067206;29;20048;-81
2024/01/02 11:21:43;;;;;;;0.80;0.40;;;10.50;76.10;;;;;;4066836;29;20080;-83
2024/01/02 11:23:50;;;;;;;0.20;0.15;;;10.60;76.20;;;;;;4067295;29;20060;-80
2024/01/02 11:26:00;;;;;;;0.65;0.20;;;10.60;76.00;;;;;;4067661;29;20056;-82
2024/01/02 11:28:03;;;;;;;1.23;0.30;;;10.60;76.70;;;;;;4068060;29;20060;-81
2024/01/02 11:30:08;;;;;;;0.32;0.17;;;10.60;75.90;;;;;;4076188;29;20084;-79
2024/01/02 11:32:17;;;;;;;1.60;0.20;;;10.60;76.00;;;;;;4079535;29;20094;-80
2024/01/02 11:34:45;;;;;;;0.52;0.20;;;10.60;75.70;;;;;;4073453;29;20095;-82
2024/01/02 11:37:04;;;;;;;0.20;0.10;;;10.60;76.20;;;;;;4067646;29;20493;-79
2024/01/02 11:39:12;;;;;;;0.43;0.15;;;10.70;75.90;;;;;;4067496;29;20052;-80
2024/01/02 11:41:29;;;;;;;0.68;0.13;;;10.60;75.60;;;;;;4067501;29;20478;-78
2024/01/02 11:43:43;;;;;;;1.23;0.30;;;10.70;75.70;;;;;;4067164;29;20131;-81
2024/01/02 11:45:52;;;;;;;0.13;0.03;;;10.70;75.70;;;;;;4066907;29;20116;-81
2024/01/02 11:48:07;;;;;;;0.20;0.10;;;10.70;75.70;;;;;;4067158;29;20104;-79
2024/01/02 11:50:11;;;;;;;0.40;0.10;;;10.70;75.70;;;;;;4066958;29;20085;-79
2024/01/02 11:52:18;;;;;;;1.35;0.20;;;10.80;75.80;;;;;;4066639;29;20463;-80
2024/01/02 11:54:36;;;;;;;0.47;0.13;;;10.80;75.80;;;;;;4067088;29;20084;-79
2024/01/02 11:56:38;;;;;;;0.20;0.10;;;10.80;75.50;;;;;;4068175;29;20055;-81
2024/01/02 11:58:43;;;;;;;0.17;0.10;;;10.70;75.40;;;;;;4066852;29;20116;-79
2024/01/02 12:01:00;;;;;;;0.30;0.20;;;10.80;75.30;;;;;;4069744;29;20059;-80
2024/01/02 12:03:11;;;;;;;0.25;0.10;;;10.70;75.50;;;;;;4080743;29;20047;-79
2024/01/02 12:05:21;;;;;;;1.05;0.20;;;10.80;75.20;;;;;;4082636;29;20146;-78
2024/01/02 12:07:25;;;;;;;0.35;0.10;;;10.80;75.10;;;;;;4082745;29;20468;-80
2024/01/02 12:09:31;;;;;;;0.50;0.17;;;10.80;74.80;;;;;;4082544;29;20047;-79
2024/01/02 12:11:40;;;;;;;0.75;0.30;;;10.80;74.90;;;;;;4082406;29;20116;-78
2024/01/02 12:14:03;;;;;;;1.10;0.40;;;10.80;74.50;;;;;;4082492;29;20066;-79
2024/01/02 12:16:10;;;;;;;3.55;1.75;;;10.80;74.80;;;;;;4082795;29;20385;-79
2024/01/02 12:18:14;;;;;;;0.38;0.15;;;10.80;74.80;;;;;;4082470;29;20387;-79
2024/01/02 12:20:19;;;;;;;0.52;0.20;;;10.80;74.50;;;;;;4082583;29;20055;-80
2024/01/02 12:22:22;;;;;;;1.10;0.35;;;10.80;74.70;;;;;;4082073;29;20481;-79
2024/01/02 12:24:25;;;;;;;0.52;0.20;;;10.80;74.70;;;;;;4082367;29;20402;-79
2024/01/02 12:26:31;;;;;;;0.55;0.22;;;10.80;75.00;;;;;;4082352;29;20394;-79
2024/01/02 12:28:36;;;;;;;10.45;4.97;;;10.80;75.20;;;;;;4082356;29;20107;-79
2024/01/02 12:30:44;;;;;;;4.00;1.52;;;10.80;74.80;;;;;;4082440;29;20044;-81
2024/01/02 12:33:02;;;;;;;2.08;0.70;;;10.80;74.90;;;;;;4082360;29;20055;-81
2024/01/02 12:35:09;;;;;;;0.57;0.20;;;10.80;75.00;;;;;;4082803;29;20142;-81
2024/01/02 12:37:21;;;;;;;0.30;0.10;;;10.80;74.80;;;;;;4082843;29;20048;-77
2024/01/02 12:39:25;;;;;;;0.50;0.20;;;10.80;74.90;;;;;;4082567;29;20485;-78
2024/01/02 12:41:35;;;;;;;0.52;0.28;;;10.80;74.70;;;;;;4082379;29;20489;-81
2024/01/02 12:43:41;;;;;;;0.70;0.20;;;10.80;74.70;;;;;;4082514;29;20521;-80
2024/01/02 12:45:47;;;;;;;0.63;0.20;;;10.80;75.40;;;;;;4081853;29;20051;-80
2024/01/02 12:47:55;;;;;;;0.80;0.28;;;10.80;75.80;;;;;;4082602;29;20079;-79
2024/01/02 12:50:02;;;;;;;0.55;0.20;;;10.80;75.70;;;;;;4082248;29;20056;-79
2024/01/02 12:52:07;;;;;;;1.08;0.20;;;10.80;75.50;;;;;;4082381;29;20059;-80
2024/01/02 12:54:12;;;;;;;0.80;0.30;;;10.90;75.40;;;;;;4082192;29;20059;-79
2024/01/02 12:56:17;;;;;;;1.00;0.30;;;10.80;75.30;;;;;;4081938;29;20529;-80
2024/01/02 12:58:20;;;;;;;0.85;0.22;;;10.80;75.60;;;;;;4082152;29;20478;-80
2024/01/02 13:00:22;;;;;;;0.75;0.25;;;10.90;75.40;;;;;;4082012;29;20059;-79
2024/01/02 13:02:25;;;;;;;1.58;0.30;;;10.90;75.40;;;;;;4082242;29;20451;-81
2024/01/02 13:04:27;;;;;;;0.65;0.20;;;10.80;75.00;;;;;;4082069;29;20059;-80
2024/01/02 13:06:30;;;;;;;2.50;0.68;;;10.80;75.10;;;;;;4085193;29;20099;-79
2024/01/02 13:08:32;;;;;;;1.33;0.30;;;10.80;75.30;;;;;;4085401;29;20365;-80
2024/01/02 13:10:34;;;;;;;0.57;0.20;;;10.80;75.70;;;;;;4084885;29;20106;-79
2024/01/02 13:12:40;;;;;;;0.90;0.30;;;10.80;76.10;;;;;;4085214;29;20051;-79
2024/01/02 13:14:45;;;;;;;0.70;0.20;;;10.80;76.00;;;;;;4085290;29;20200;-82
2024/01/02 13:16:47;;;;;;;0.50;0.20;;;10.80;75.90;;;;;;4085533;29;20059;-79
2024/01/02 13:18:49;;;;;;;1.30;0.32;;;10.80;76.00;;;;;;4085105;29;20090;-81
2024/01/02 13:20:54;;;;;;;0.55;0.20;;;10.80;75.80;;;;;;4083451;29;20111;-80
2024/01/02 13:22:56;;;;;;;1.27;0.57;;;10.80;75.90;;;;;;4085068;29;20413;-78
2024/01/02 13:24:57;;;;;;;0.75;0.30;;;10.70;76.10;;;;;;4085175;29;20496;-79
2024/01/02 13:26:59;;;;;;;0.45;0.17;;;10.80;76.80;;;;;;4084972;29;20114;-79
2024/01/02 13:29:09;;;;;;;0.60;0.20;;;10.80;75.90;;;;;;4085083;29;20470;-79
2024/01/02 13:31:12;;;;;;;0.70;0.20;;;10.70;75.10;;;;;;4085307;29;20103;-81
2024/01/02 13:33:15;;;;;;;3.17;1.20;;;10.70;75.30;;;;;;4084925;29;20465;-80
2024/01/02 13:35:17;;;;;;;1.35;0.50;;;10.70;75.30;;;;;;4085398;29;20500;-80
2024/01/02 13:37:26;;;;;;;1.33;0.10;;;10.70;75.40;;;;;;4084889;29;20043;-79
2024/01/02 13:39:33;;;;;;;0.10;0.05;;;10.70;75.50;;;;;;4085080;29;20059;-80
2024/01/02 13:41:43;;;;;;;0.38;0.20;;;10.70;76.20;;;;;;4084795;29;20131;-81
2024/01/02 13:43:46;;;;;;;0.70;0.15;;;10.70;75.70;;;;;;4085474;29;20088;-80
2024/01/02 13:45:49;;;;;;;0.57;0.20;;;10.70;75.50;;;;;;4084332;29;20504;-79
2024/01/02 13:47:54;;;;;;;1.10;0.20;;;10.70;75.60;;;;;;4084734;29;20058;-79
2024/01/02 13:49:55;;;;;;;1.02;0.32;;;10.70;75.70;;;;;;4084864;29;20127;-79
2024/01/02 13:51:57;;;;;;;0.60;0.15;;;10.70;75.50;;;;;;4084567;29;20094;-79
2024/01/02 13:54:00;;;;;;;1.05;0.30;;;10.70;75.50;;;;;;4085820;29;20060;-82
2024/01/02 13:56:05;;;;;;;0.57;0.20;;;10.70;75.50;;;;;;4085186;29;20056;-80
2024/01/02 13:58:13;;;;;;;0.28;0.13;;;10.70;75.60;;;;;;4084248;29;20552;-79
2024/01/02 14:00:17;;;;;;;1.67;0.50;;;10.70;75.60;;;;;;4084824;29;20048;-79
2024/01/02 14:02:23;;;;;;;0.90;0.30;;;10.70;75.70;;;;;;4084198;29;20060;-80
2024/01/02 14:04:26;;;;;;;1.05;0.40;;;10.70;75.70;;;;;;4082461;29;20071;-81
2024/01/02 14:06:30;;;;;;;0.52;0.20;;;10.70;75.80;;;;;;4084253;29;20043;-79
2024/01/02 14:08:32;;;;;;;0.47;0.17;;;10.60;75.60;;;;;;4084058;29;20510;-78
2024/01/02 14:10:38;;;;;;;0.63;0.20;;;10.70;76.00;;;;;;4067178;29;20048;-79
2024/01/02 14:12:41;;;;;;;0.95;0.30;;;10.60;76.10;;;;;;4067888;29;20056;-80
2024/01/02 14:14:48;;;;;;;0.45;0.10;;;10.60;76.60;;;;;;4084088;29;20055;-80
2024/01/02 14:16:50;;;;;;;0.47;0.20;;;10.60;76.60;;;;;;4083520;29;20118;-81
2024/01/02 14:18:52;;;;;;;0.20;0.08;;;10.60;76.70;;;;;;4084122;29;20062;-79
2024/01/02 14:21:06;;;;;;;1.15;0.30;;;10.60;77.00;;;;;;4083917;29;20103;-79
2024/01/02 14:23:19;;;;;;;0.30;0.20;;;10.60;78.10;;;;;;4084051;29;20063;-80
2024/01/02 14:25:41;;;;;;;0.68;0.20;;;10.60;77.40;;;;;;4084259;29;20044;-79
2024/01/02 14:27:56;;;;;;;0.82;0.30;;;10.50;77.70;;;;;;4084477;29;20051;-80
2024/01/02 14:30:12;;;;;;;0.50;0.20;;;10.50;78.10;;;;;;4084152;29;20438;-80
2024/01/02 14:32:22;;;;;;;0.63;0.10;;;10.50;78.60;;;;;;4084120;29;20138;-80
2024/01/02 14:34:42;;;;;;;0.80;0.30;;;10.50;79.10;;;;;;4083849;29;20059;-79
2024/01/02 14:36:59;;;;;;;1.02;0.40;;;10.40;79.40;;;;;;4083835;29;20095;-77
2024/01/02 14:39:21;;;;;;;0.98;0.40;;;10.30;79.70;;;;;;4084112;29;20095;-79
2024/01/02 14:41:38;;;;;;;0.60;0.20;;;10.30;80.80;;;;;;4083693;29;20048;-79
2024/01/02 14:43:53;;;;;;;0.95;0.30;;;10.30;81.10;;;;;;4083803;29;20056;-81
2024/01/02 14:46:09;;;;;;;;;;;10.30;82.00;;;;;;4083975;29;20048;-80
2024/01/02 14:48:18;;;;;;;0.90;0.32;;;10.20;82.50;;;;;;4083735;29;19923;-80
2024/01/02 14:50:33;;;;;;;0.95;0.25;;;10.20;83.00;;;;;;4083664;29;20759;-81
2024/01/02 14:53:04;;;;;;;0.90;0.30;;;10.20;83.30;;;;;;4083804;29;20056;-80
2024/01/02 14:55:20;;;;;;;1.95;0.45;;;10.20;84.00;;;;;;4084014;29;20102;-81
2024/01/02 14:57:32;;;;;;;0.50;0.20;;;10.10;84.50;;;;;;4083468;29;20102;-81
2024/01/02 14:59:50;;;;;;;0.47;0.13;;;10.00;84.90;;;;;;4083459;29;20051;-81
2024/01/02 15:02:23;;;;;;;0.93;0.30;;;10.00;85.40;;;;;;4083459;29;20126;-78
2024/01/02 15:04:32;;;;;;;0.88;0.30;;;10.00;86.10;;;;;;4081559;29;20056;-80
2024/01/02 15:06:37;;;;;;;0.70;0.22;;;9.90;86.20;;;;;;4068010;29;20044;-80
2024/01/02 15:08:57;;;;;;;0.90;0.30;;;9.90;86.60;;;;;;4074991;29;20081;-81
2024/01/02 15:11:06;;;;;;;0.75;0.30;;;9.90;86.70;;;;;;4082965;29;20052;-82
2024/01/02 15:13:16;;;;;;;0.25;0.15;;;9.90;86.70;;;;;;4084020;29;20060;-81
2024/01/02 15:15:32;;;;;;;0.52;0.20;;;9.90;86.80;;;;;;4084634;29;20066;-84
2024/01/02 15:18:00;;;;;;;1.25;0.30;;;9.90;87.10;;;;;;4084159;29;20130;-86
2024/01/02 15:20:08;;;;;;;0.85;0.32;;;9.80;87.20;;;;;;4085329;29;20052;-87
2024/01/02 15:22:24;;;;;;;1.58;0.63;;;9.80;87.10;;;;;;4085367;29;20052;-84
2024/01/02 15:24:35;;;;;;;0.47;0.15;;;9.80;87.30;;;;;;4085470;29;20169;-87
2024/01/02 15:26:48;;;;;;;0.47;0.20;;;9.80;87.90;;;;;;4085413;29;20066;-84
2024/01/02 15:29:07;;;;;;;0.47;0.28;;;9.80;87.10;;;;;;4086442;29;20129;-86
2024/01/02 15:31:14;;;;;;;0.77;0.25;;;9.80;87.60;;;;;;4086762;29;20070;-85
2024/01/02 15:33:19;;;;;;;1.02;0.30;;;9.80;87.20;;;;;;4084628;29;20115;-87
2024/01/02 15:35:24;;;;;;;0.68;0.22;;;9.80;87.30;;;;;;4085606;29;20059;-84
2024/01/02 15:37:29;;;;;;;4.25;1.63;;;9.80;86.70;;;;;;4085064;29;20090;-83
2024/01/02 15:39:39;;;;;;;2.92;1.27;;;9.80;87.00;;;;;;4084533;29;20087;-86
2024/01/02 15:41:58;;;;;;;1.48;0.68;;;9.80;87.30;;;;;;4083387;29;20493;-87
2024/01/02 15:44:09;;;;;;;7.05;3.50;;;9.80;87.00;;;;;;4084515;29;20473;-87
2024/01/02 15:46:25;;;;;;;1.08;0.30;;;9.80;87.10;;;;;;4084333;29;20066;-86
2024/01/02 15:48:32;;;;;;;1.45;0.47;;;9.80;87.20;;;;;;4084839;29;20090;-85
2024/01/02 15:50:38;;;;;;;1.15;0.50;;;9.80;87.00;;;;;;4091206;29;20124;-85
2024/01/02 15:52:41;;;;;;;0.70;0.20;;;9.80;86.30;;;;;;4089093;29;20062;-79
2024/01/02 15:55:01;;;;;;;1.23;0.50;;;9.80;86.00;;;;;;4084120;29;20046;-81
2024/01/02 15:57:09;;;;;;;1.08;0.40;;;9.90;86.40;;;;;;4083238;29;20060;-78
2024/01/02 15:59:17;;;;;;;1.17;0.30;;;9.80;86.40;;;;;;4082913;29;20055;-79
2024/01/02 16:01:20;;;;;;;0.90;0.30;;;9.80;85.60;;;;;;4076193;29;20462;-79
2024/01/02 16:03:57;;;;;;;0.63;0.25;;;9.90;85.90;;;;;;4065686;29;20275;-85
2024/01/02 16:06:37;;;;;;;1.00;0.47;;;9.90;86.00;;;;;;4057602;29;20116;-85
2024/01/02 16:08:59;;;;;;;1.05;0.40;;;9.80;85.40;;;;;;4062567;29;20490;-85
2024/01/02 16:11:27;;;;;;;2.67;1.02;;;9.90;85.30;;;;;;4068371;29;20080;-85
2024/01/02 16:14:07;;;;;;;1.08;0.30;;;9.90;85.10;;;;;;4067895;29;20084;-86
2024/01/02 16:16:29;;;;;;;0.73;0.25;;;10.00;85.00;;;;;;4068616;29;20108;-85
2024/01/02 16:19:13;;;;;;;1.60;0.40;;;10.00;84.60;;;;;;4068521;29;20051;-85
2024/01/02 16:21:22;;;;;;;4.15;1.65;;;10.00;84.30;;;;;;4067803;29;20187;-86
2024/01/02 16:24:15;;;;;;;2.10;0.80;;;10.00;84.50;;;;;;4067849;29;20052;-86
2024/01/02 16:26:39;;;;;;;1.13;0.32;;;10.00;83.90;;;;;;4064352;29;20048;-86
2024/01/02 16:29:00;;;;;;;0.47;0.20;;;10.10;83.80;;;;;;4053554;29;20052;-84
2024/01/02 16:31:16;;;;;;;0.68;0.25;;;10.10;83.60;;;;;;4062657;29;20131;-86
2024/01/02 16:33:45;;;;;;;0.98;0.30;;;10.10;83.40;;;;;;4068374;29;20060;-87
2024/01/02 16:36:11;;;;;;;0.60;0.30;;;10.10;83.00;;;;;;4069515;29;20391;-86
2024/01/02 16:38:23;;;;;;;1.85;0.40;;;10.20;83.20;;;;;;4068097;29;20117;-85
2024/01/02 16:41:00;;;;;;;0.68;0.30;;;10.20;83.10;;;;;;4070972;29;20051;-86
2024/01/02 16:43:05;;;;;;;0.60;0.20;;;10.20;83.80;;;;;;4064482;29;20060;-86
2024/01/02 16:45:09;;;;;;;1.65;0.45;;;10.20;82.80;;;;;;4070592;29;20092;-85
2024/01/02 16:47:11;;;;;;;0.98;0.30;;;10.20;82.80;;;;;;4071410;29;20474;-85
2024/01/02 16:49:13;;;;;;;0.35;0.20;;;10.20;82.40;;;;;;4071077;29;20060;-86
2024/01/02 16:51:16;;;;;;;1.35;0.30;;;10.20;82.70;;;;;;4070366;29;20395;-88
2024/01/02 16:53:17;;;;;;;0.88;0.20;;;10.20;82.40;;;;;;4070893;29;20135;-86
2024/01/02 16:55:19;;;;;;;1.20;0.30;;;10.30;82.40;;;;;;4070487;29;20108;-86
2024/01/02 16:57:25;;;;;;;0.40;0.20;;;10.20;82.50;;;;;;4070314;29;20060;-85
2024/01/02 16:59:30;;;;;;;0.77;0.25;;;10.30;82.40;;;;;;4069782;29;20143;-86
2024/01/02 17:01:35;;;;;;;0.10;0.10;;;10.30;82.10;;;;;;4070457;29;20059;-85
2024/01/02 17:03:37;;;;;;;0.52;0.30;;;10.30;82.40;;;;;;4069589;29;20066;-86
2024/01/02 17:05:38;;;;;;;0.50;0.28;;;10.30;82.50;;;;;;4069900;29;20440;-86
2024/01/02 17:07:40;;;;;;;1.05;0.52;;;10.30;83.00;;;;;;4070956;29;20063;-85
2024/01/02 17:09:44;;;;;;;1.63;0.70;;;10.30;84.20;;;;;;4070940;29;20455;-84
2024/01/02 17:11:46;;;;;;;0.80;0.20;;;10.30;83.20;;;;;;4081023;29;20115;-85
2024/01/02 17:13:49;;;;;;;1.52;0.20;;;10.30;83.60;;;;;;4077270;29;20048;-84